Time;durP1;ratioP1;P1;durP2;ratioP2;P2;SDS_P1;SDS_P2;PMS_P1;PMS_P2;Temp;Humidity;BMP_temperature;BMP_pressure;BME280_temperature;BME280_humidity;BME280_pressure;Samples;Min_cycle;Max_cycle;Signal;HPM_P1;HPM_P2
2021/10/28 00:13:41;;;;;;;71.10;43.40;;;;;;;9.33;62.22;99997.70;235414;1196;139552;-61
2021/10/28 00:18:47;;;;;;;75.30;44.20;;;;;;;9.29;62.31;100001.77;235698;1196;140739;-58
2021/10/28 00:23:51;;;;;;;72.90;42.70;;;;;;;9.19;62.40;100002.68;235882;1196;138560;-57
2021/10/28 00:28:59;;;;;;;74.00;43.40;;;;;;;9.05;62.20;100000.61;235745;1196;138640;-57
2021/10/28 00:34:03;;;;;;;73.40;42.00;;;;;;;8.93;62.20;100003.57;235756;1196;139237;-58
2021/10/28 00:39:08;;;;;;;74.60;42.40;;;;;;;8.89;62.61;100003.03;235645;1196;140800;-56
2021/10/28 00:44:11;;;;;;;72.80;42.30;;;;;;;8.92;62.91;100003.45;235561;1196;140113;-57
2021/10/28 00:49:14;;;;;;;76.90;43.20;;;;;;;8.92;62.72;100003.96;235338;1196;139305;-60
2021/10/28 00:54:22;;;;;;;76.40;43.40;;;;;;;8.89;62.61;100011.33;235500;1196;140096;-61
2021/10/28 00:59:25;;;;;;;77.20;43.20;;;;;;;8.77;62.50;100018.71;235842;1196;138798;-55
2021/10/28 01:04:28;;;;;;;75.00;42.70;;;;;;;8.66;62.46;100011.70;235759;1195;138849;-57
2021/10/28 01:09:31;;;;;;;70.10;40.80;;;;;;;8.53;62.57;100014.34;235721;1196;139048;-58
2021/10/28 01:14:46;;;;;;;71.90;40.90;;;;;;;8.41;62.63;100004.72;235827;1196;138962;-56
2021/10/28 01:19:52;;;;;;;67.20;39.60;;;;;;;8.31;62.69;100004.86;235722;1196;138840;-59
2021/10/28 01:24:55;;;;;;;71.10;39.80;;;;;;;8.17;62.70;99994.42;235835;1196;139046;-57
2021/10/28 01:29:58;;;;;;;65.50;37.70;;;;;;;8.11;62.83;99990.21;236022;1196;138366;-58
2021/10/28 01:35:02;;;;;;;64.80;38.00;;;;;;;8.06;62.93;99991.64;236056;1195;139083;-58
2021/10/28 01:40:05;;;;;;;68.60;39.10;;;;;;;8.05;63.16;99990.45;235850;1195;139119;-58
2021/10/28 01:45:08;;;;;;;67.70;37.90;;;;;;;8.01;62.95;99989.52;235936;1195;138933;-56
2021/10/28 01:50:12;;;;;;;71.50;40.00;;;;;;;7.98;63.02;99983.47;235320;1196;140542;-57
2021/10/28 01:55:15;;;;;;;66.10;39.30;;;;;;;7.95;63.14;99982.67;236119;1195;138664;-58
2021/10/28 02:00:22;;;;;;;66.20;39.30;;;;;;;7.94;63.09;99982.53;235915;1195;140688;-58
2021/10/28 02:05:26;;;;;;;70.10;39.60;;;;;;;7.86;62.82;99986.20;236214;1196;139022;-58
2021/10/28 02:10:29;;;;;;;69.70;40.10;;;;;;;7.79;62.88;99983.95;235893;1195;141142;-55
2021/10/28 02:15:32;;;;;;;68.40;41.60;;;;;;;7.81;62.93;99988.10;235859;1196;138176;-58
2021/10/28 02:20:38;;;;;;;65.30;39.80;;;;;;;7.77;62.88;99984.73;235849;1195;139561;-57
2021/10/28 02:25:41;;;;;;;64.20;40.20;;;;;;;7.67;62.89;99983.49;235714;1196;137861;-56
2021/10/28 02:30:45;;;;;;;67.00;40.70;;;;;;;7.56;62.97;99984.75;235585;1195;139282;-58
2021/10/28 02:35:48;;;;;;;66.10;39.40;;;;;;;7.51;63.15;99985.80;236162;1195;139424;-58
2021/10/28 02:40:51;;;;;;;66.50;39.50;;;;;;;7.51;63.18;99985.65;236369;1195;138782;-59
2021/10/28 02:45:54;;;;;;;69.00;41.40;;;;;;;7.49;63.21;99987.31;236117;1195;139202;-60
2021/10/28 02:50:57;;;;;;;69.80;40.60;;;;;;;7.49;63.25;99988.89;236084;1195;139788;-60
2021/10/28 02:56:00;;;;;;;76.50;44.50;;;;;;;7.50;63.40;99986.73;236009;1195;138955;-60
2021/10/28 03:01:03;;;;;;;65.50;38.60;;;;;;;7.53;63.44;99989.97;235606;1195;139818;-60
2021/10/28 03:06:07;;;;;;;70.30;40.30;;;;;;;7.44;62.91;99999.66;235314;1196;138717;-59
2021/10/28 03:11:10;;;;;;;68.10;39.80;;;;;;;7.27;62.88;100004.64;235932;1195;137865;-61
2021/10/28 03:16:28;;;;;;;60.30;39.10;;;;;;;7.09;62.75;100007.49;235932;1196;138562;-59
2021/10/28 03:26:53;;;;;;;66.00;38.10;;;;;;;6.84;63.13;100007.94;235657;1190;138803;-61
2021/10/28 03:31:56;;;;;;;64.40;39.20;;;;;;;6.78;63.20;100012.20;235773;1196;139782;-59
2021/10/28 04:19:33;;;;;;;64.30;37.80;;;;;;;6.36;63.10;100038.30;235618;1196;139169;-57
2021/10/28 04:29:58;;;;;;;61.80;37.70;;;;;;;6.18;63.28;100047.80;235624;1196;138890;-57
2021/10/28 04:35:03;;;;;;;57.10;35.80;;;;;;;6.09;63.16;100046.29;235380;1196;139888;-60
2021/10/28 04:40:07;;;;;;;60.80;36.00;;;;;;;6.06;63.32;100047.95;235726;1196;139673;-59
2021/10/28 04:45:11;;;;;;;65.00;37.90;;;;;;;6.01;63.27;100043.52;235929;1195;140106;-56
2021/10/28 04:50:14;;;;;;;56.60;37.00;;;;;;;5.95;63.33;100040.15;235694;1196;142773;-58
2021/10/28 04:55:17;;;;;;;68.10;38.40;;;;;;;5.98;63.44;100042.90;235651;1195;139763;-59
2021/10/28 05:00:20;;;;;;;63.60;38.90;;;;;;;5.99;63.44;100048.34;235718;1196;138215;-59
2021/10/28 05:05:23;;;;;;;72.80;39.80;;;;;;;6.01;63.67;100050.20;235713;1195;139537;-58
2021/10/28 05:10:30;;;;;;;68.50;38.80;;;;;;;6.02;63.74;100055.10;235836;1195;139173;-60
2021/10/28 05:15:33;;;;;;;60.90;36.90;;;;;;;6.01;63.97;100059.52;235731;1195;138534;-60
2021/10/28 05:20:36;;;;;;;65.70;38.40;;;;;;;5.97;63.74;100062.12;235838;1195;139136;-59
2021/10/28 05:25:39;;;;;;;68.10;39.00;;;;;;;5.93;63.79;100058.34;235026;1196;138927;-61
2021/10/28 05:30:42;;;;;;;70.70;38.40;;;;;;;5.92;63.75;100054.64;235630;1196;138595;-60
2021/10/28 05:35:50;;;;;;;64.80;37.20;;;;;;;5.93;64.02;100059.56;236027;1195;138833;-59
2021/10/28 05:40:54;;;;;;;68.80;39.70;;;;;;;5.96;63.94;100063.05;235812;1195;139176;-59
2021/10/28 05:45:57;;;;;;;55.10;34.90;;;;;;;5.96;63.83;100062.86;236130;1195;138542;-58
2021/10/28 05:51:00;;;;;;;57.20;36.40;;;;;;;5.97;63.90;100069.69;236090;1195;138644;-57
2021/10/28 05:56:04;;;;;;;59.30;37.50;;;;;;;5.95;64.02;100062.87;236020;1194;138694;-59
2021/10/28 06:01:07;;;;;;;64.20;37.70;;;;;;;5.98;64.12;100063.50;235940;1195;138927;-58
2021/10/28 06:06:10;;;;;;;65.50;37.50;;;;;;;5.99;64.08;100068.74;235983;1195;138801;-59
2021/10/28 06:11:15;;;;;;;67.90;37.90;;;;;;;5.99;63.86;100077.75;235995;1195;139194;-58
2021/10/28 06:16:18;;;;;;;68.60;39.90;;;;;;;5.92;64.03;100082.13;236109;1195;139052;-59
2021/10/28 06:21:25;;;;;;;63.90;39.40;;;;;;;5.90;64.10;100081.11;235612;1189;138975;-59
2021/10/28 06:26:29;;;;;;;71.80;40.00;;;;;;;5.92;64.13;100081.41;236123;1194;138371;-61
2021/10/28 06:31:32;;;;;;;69.00;40.60;;;;;;;5.93;64.06;100088.80;235484;1196;138798;-60
2021/10/28 06:36:38;;;;;;;70.30;39.10;;;;;;;5.96;64.03;100094.20;235816;1196;139674;-60
2021/10/28 06:41:41;;;;;;;74.50;41.30;;;;;;;6.04;64.37;100088.89;235981;1195;138971;-58
2021/10/28 06:46:44;;;;;;;68.60;39.20;;;;;;;6.14;64.63;100091.05;235932;1196;138707;-61
2021/10/28 06:51:48;;;;;;;70.50;40.00;;;;;;;6.24;64.47;100096.10;235509;1195;139085;-59
2021/10/28 06:57:17;;;;;;;72.70;41.00;;;;;;;6.32;64.55;100093.73;235944;1195;138780;-60
2021/10/28 07:07:29;;;;;;;85.30;40.10;;;;;;;6.54;64.90;100089.08;236079;1195;140917;-59
2021/10/28 07:18:07;;;;;;;67.60;41.00;;;;;;;6.77;65.26;100081.02;236100;1195;138731;-60
2021/10/28 08:21:42;;;;;;;42.90;21.50;;;;;;;9.70;65.47;100041.15;235780;1196;139698;-60
2021/10/28 08:32:07;;;;;;;37.00;20.50;;;;;;;10.26;64.72;100033.76;235440;1195;139606;-60
2021/10/28 08:37:15;;;;;;;31.20;19.10;;;;;;;10.48;64.70;100027.80;236024;1195;139152;-61
2021/10/28 08:42:22;;;;;;;34.50;20.60;;;;;;;10.71;64.53;100025.70;235717;1196;138678;-62
2021/10/28 08:47:27;;;;;;;35.70;20.90;;;;;;;10.87;64.34;100018.36;235583;1196;138655;-60
2021/10/28 09:25:12;;;;;;;476.60;331.50;;;;;;;12.17;62.48;100000.84;235394;1196;139869;-59
2021/10/28 09:30:30;;;;;;;191.50;116.70;;;;;;;12.35;62.52;99994.88;234892;1194;140357;-59
2021/10/28 09:48:24;;;;;;;20.50;12.80;;;;;;;12.78;61.50;99981.67;236151;1190;139385;-60
2021/10/28 09:53:10;;;;;;;24.70;12.70;;;;;;;12.87;61.16;99978.66;235608;1181;138711;-61
2021/10/28 09:58:25;;;;;;;22.00;14.30;;;;;;;12.97;60.99;99970.25;236114;1195;138922;-59
2021/10/28 10:03:33;;;;;;;21.80;13.20;;;;;;;13.07;61.10;99965.60;235973;1195;138766;-61
2021/10/28 10:08:36;;;;;;;22.90;12.40;;;;;;;13.15;60.64;99960.68;236167;1195;139052;-62
2021/10/28 10:13:39;;;;;;;32.80;18.40;;;;;;;13.27;60.43;99961.27;236073;1195;138857;-64
2021/10/28 10:18:50;;;;;;;28.60;18.90;;;;;;;13.40;60.55;99958.54;235986;1196;140456;-59
2021/10/28 10:24:24;;;;;;;42.10;25.60;;;;;;;13.53;60.46;99957.23;235600;1196;139488;-59
2021/10/28 10:30:00;;;;;;;54.00;30.30;;;;;;;13.64;60.28;99951.73;235452;1196;139643;-61
2021/10/28 11:03:22;;;;;;;35.40;19.20;;;;;;;14.27;59.20;99923.79;235863;1196;138725;-60
2021/10/28 11:26:06;;;;;;;33.60;17.70;;;;;;;14.59;58.53;99896.95;235511;1196;139389;-60
2021/10/28 12:20:12;;;;;;;22.30;13.20;;;;;;;15.43;56.30;99832.56;235763;1196;138823;-64
2021/10/28 13:03:09;;;;;;;16.60;9.10;;;;;;;15.84;55.10;99805.86;235786;1196;140428;-60
2021/10/28 14:23:31;;;;;;;17.10;8.80;;;;;;;15.60;54.04;99783.92;235706;1196;139172;-59
2021/10/28 15:37:32;;;;;;;20.00;10.50;;;;;;;14.49;54.23;99781.50;235682;1196;138855;-59
2021/10/28 16:25:21;;;;;;;29.20;12.50;;;;;;;13.26;55.94;99782.40;235520;1196;138715;-60
2021/10/28 16:30:24;;;;;;;27.50;13.50;;;;;;;13.15;56.14;99780.86;235805;1195;138701;-59
2021/10/28 16:35:29;;;;;;;30.10;15.80;;;;;;;13.05;56.12;99778.08;235571;1196;140395;-59
2021/10/28 16:40:32;;;;;;;29.90;17.80;;;;;;;12.97;56.27;99779.64;235795;1195;139465;-59
2021/10/28 16:45:37;;;;;;;138.60;84.50;;;;;;;12.90;56.54;99775.45;235874;1195;139769;-59
2021/10/28 16:50:40;;;;;;;59.50;33.30;;;;;;;12.86;56.81;99772.16;235859;1195;139074;-61
2021/10/28 16:55:43;;;;;;;40.40;23.10;;;;;;;12.82;56.94;99771.80;235547;1196;138983;-59
2021/10/28 17:00:50;;;;;;;41.00;23.90;;;;;;;12.74;56.77;99772.64;235072;1196;139985;-60
2021/10/28 17:05:53;;;;;;;40.70;24.70;;;;;;;12.65;56.97;99769.81;235701;1196;138728;-60
2021/10/28 17:10:57;;;;;;;41.50;25.40;;;;;;;12.55;57.25;99769.14;235709;1196;139127;-59
2021/10/28 17:16:01;;;;;;;47.50;25.90;;;;;;;12.45;57.25;99767.77;235723;1196;138880;-61
2021/10/28 17:21:05;;;;;;;46.00;25.80;;;;;;;12.35;57.47;99763.91;235529;1195;139230;-59
2021/10/28 17:26:11;;;;;;;41.70;26.10;;;;;;;12.28;57.58;99762.55;235593;1196;139180;-58
2021/10/28 17:31:14;;;;;;;43.10;26.60;;;;;;;12.22;57.72;99762.20;235960;1195;139129;-60
2021/10/28 17:36:17;;;;;;;47.90;26.80;;;;;;;12.15;57.89;99763.81;235837;1195;138676;-60
2021/10/28 17:41:22;;;;;;;49.20;29.00;;;;;;;12.09;57.99;99762.73;236032;1195;138854;-61
2021/10/28 17:46:26;;;;;;;85.30;53.10;;;;;;;12.05;58.11;99764.02;235611;1195;138451;-61
2021/10/28 17:51:30;;;;;;;60.80;34.80;;;;;;;12.03;58.47;99766.97;236031;1195;139627;-62
2021/10/28 17:56:33;;;;;;;50.90;29.10;;;;;;;11.99;58.26;99764.19;235858;1196;139011;-59
2021/10/28 18:01:40;;;;;;;52.40;29.50;;;;;;;11.92;58.50;99760.69;235678;1195;138349;-62
2021/10/28 18:06:44;;;;;;;46.20;29.20;;;;;;;11.84;58.39;99763.25;235677;1196;140668;-61
2021/10/28 18:11:49;;;;;;;51.40;28.60;;;;;;;11.73;58.69;99765.27;235701;1196;139013;-60
2021/10/28 18:16:52;;;;;;;48.60;28.20;;;;;;;11.66;58.55;99757.66;235725;1196;139435;-62
2021/10/28 18:21:56;;;;;;;53.60;30.40;;;;;;;11.59;58.90;99751.94;235647;1196;138901;-60
2021/10/28 18:26:59;;;;;;;51.20;28.50;;;;;;;11.56;58.94;99753.52;235638;1196;139189;-61
2021/10/28 18:32:03;;;;;;;56.00;29.90;;;;;;;11.51;58.98;99747.05;235543;1195;138848;-61
2021/10/28 18:37:06;;;;;;;54.60;30.60;;;;;;;11.44;59.14;99743.17;235886;1195;140503;-60
2021/10/28 18:42:09;;;;;;;47.20;29.80;;;;;;;11.41;59.39;99738.90;235618;1196;138677;-61
2021/10/28 18:47:15;;;;;;;51.10;30.20;;;;;;;11.46;59.51;99734.56;235462;1196;139995;-60
2021/10/28 18:52:19;;;;;;;58.00;32.20;;;;;;;11.34;59.43;99732.89;235923;1195;139117;-60
2021/10/28 18:57:22;;;;;;;51.50;31.00;;;;;;;11.19;59.37;99726.06;235904;1196;141503;-60
2021/10/28 19:02:27;;;;;;;53.70;31.00;;;;;;;11.04;59.60;99723.48;236039;1195;139347;-61
2021/10/28 19:07:31;;;;;;;51.50;31.70;;;;;;;10.94;59.86;99726.16;235767;1195;138987;-60
2021/10/28 19:12:34;;;;;;;59.90;33.40;;;;;;;10.82;59.89;99716.31;235838;1195;231681;-61
2021/10/28 19:17:39;;;;;;;72.00;34.70;;;;;;;10.70;60.15;99713.53;235911;1195;139178;-61
2021/10/28 19:22:43;;;;;;;252.50;163.60;;;;;;;10.58;59.92;99711.65;235882;1194;138457;-61
2021/10/28 19:27:48;;;;;;;64.90;34.00;;;;;;;10.60;60.46;99714.08;235681;1196;139991;-58
2021/10/28 19:32:57;;;;;;;59.70;34.30;;;;;;;10.57;60.07;99715.81;236323;1195;139619;-59
2021/10/28 19:48:46;;;;;;;64.90;37.50;;;;;;;10.37;60.39;99707.77;235474;1196;138922;-59
2021/10/28 19:53:50;;;;;;;74.70;40.60;;;;;;;10.32;60.36;99698.47;235759;1196;138936;-59
2021/10/28 19:58:58;;;;;;;68.60;38.30;;;;;;;10.25;60.70;99698.80;236080;1195;139225;-61
2021/10/28 20:25:31;;;;;;;76.90;42.70;;;;;;;9.86;61.17;99707.80;235588;1196;139147;-61
2021/10/28 20:30:48;;;;;;;82.50;42.40;;;;;;;9.82;61.49;99708.17;235866;1196;138903;-59
2021/10/28 20:41:13;;;;;;;74.00;41.90;;;;;;;9.90;61.81;99705.31;235772;1195;138834;-60
2021/10/28 20:46:21;;;;;;;78.50;45.80;;;;;;;9.93;61.86;99700.52;235640;1195;139168;-60
2021/10/28 20:51:25;;;;;;;84.20;46.50;;;;;;;9.94;61.81;99705.27;235697;1196;138496;-58
2021/10/28 20:56:28;;;;;;;76.80;44.80;;;;;;;9.95;61.99;99701.68;235457;1196;138546;-58
2021/10/28 21:01:32;;;;;;;75.10;43.60;;;;;;;9.94;61.84;99707.94;235703;1196;138655;-57
2021/10/28 21:06:36;;;;;;;76.30;45.10;;;;;;;9.88;61.84;99702.39;235531;1196;138535;-59
2021/10/28 21:11:40;;;;;;;85.80;47.10;;;;;;;9.85;62.02;99696.34;235475;1196;138745;-58
2021/10/28 21:16:43;;;;;;;73.60;44.90;;;;;;;9.81;62.21;99696.14;235618;1195;138927;-62
2021/10/28 21:21:51;;;;;;;79.50;45.60;;;;;;;9.74;61.85;99692.61;235737;1196;138434;-61
2021/10/28 21:26:54;;;;;;;79.90;46.00;;;;;;;9.64;61.86;99686.14;235771;1196;138172;-62
2021/10/28 21:31:57;;;;;;;76.00;44.30;;;;;;;9.56;62.07;99678.77;235738;1195;139076;-62
2021/10/28 21:37:00;;;;;;;67.90;42.00;;;;;;;9.49;61.92;99681.55;235572;1196;140080;-61
2021/10/28 21:42:03;;;;;;;80.20;44.30;;;;;;;9.45;62.24;99683.54;235948;1195;139001;-63
2021/10/28 21:47:07;;;;;;;73.80;43.40;;;;;;;9.41;62.15;99682.49;235791;1196;138468;-61
2021/10/28 21:52:23;;;;;;;75.50;44.00;;;;;;;9.37;62.18;99672.95;235579;1196;138657;-62
2021/10/28 22:03:03;;;;;;;80.00;46.70;;;;;;;9.16;62.06;99668.37;235798;1196;139075;-60
2021/10/28 22:24:30;;;;;;;83.70;45.90;;;;;;;8.76;61.99;99652.14;235907;1195;138746;-60
2021/10/28 22:29:34;;;;;;;84.90;47.30;;;;;;;8.61;62.00;99647.55;235595;1196;138434;-59
2021/10/28 22:34:39;;;;;;;80.90;46.90;;;;;;;8.48;61.93;99642.25;235847;1196;138179;-61
2021/10/28 22:39:53;;;;;;;77.20;44.30;;;;;;;8.36;61.92;99646.82;235496;1196;138603;-61
2021/10/28 22:44:56;;;;;;;91.70;46.20;;;;;;;8.27;62.05;99648.42;235656;1196;139614;-60
2021/10/28 22:50:00;;;;;;;75.80;45.80;;;;;;;8.22;62.10;99648.48;235784;1196;141472;-61
2021/10/28 22:55:11;;;;;;;78.20;45.70;;;;;;;8.18;62.22;99645.14;236160;1195;138643;-58
2021/10/28 23:21:24;;;;;;;79.30;47.00;;;;;;;7.78;62.48;99628.60;235592;1196;138834;-58
2021/10/28 23:26:30;;;;;;;83.10;46.70;;;;;;;7.70;62.51;99626.98;235499;1196;139225;-61
2021/10/28 23:31:33;;;;;;;83.90;46.70;;;;;;;7.60;62.55;99624.18;235597;1196;139140;-59
2021/10/28 23:36:36;;;;;;;81.20;47.40;;;;;;;7.53;62.63;99624.67;235945;1196;139415;-58
2021/10/28 23:41:39;;;;;;;83.40;44.60;;;;;;;7.47;62.83;99621.73;235750;1196;139111;-59
2021/10/28 23:46:42;;;;;;;79.10;45.00;;;;;;;7.45;62.97;99623.73;235742;1195;140458;-61
2021/10/28 23:51:45;;;;;;;84.90;46.90;;;;;;;7.44;62.88;99625.56;236093;1195;139208;-60
2021/10/28 23:56:48;;;;;;;84.10;45.90;;;;;;;7.40;62.93;99624.30;235754;1196;139790;-60
